sensor_id;sensor_type;location;lat;lon;timestamp;pressure;altitude;pressure_sealevel;temperature;humidity
55550;BME280;41397;49.972;18.944;2023-04-26T00:02:58;101353.57;;;13.69;52.05
55550;BME280;41397;49.972;18.944;2023-04-26T00:06:05;101363.22;;;13.63;51.90
55550;BME280;41397;49.972;18.944;2023-04-26T00:09:09;101352.50;;;13.60;52.04
55550;BME280;41397;49.972;18.944;2023-04-26T00:12:11;101361.34;;;13.64;52.10
55550;BME280;41397;49.972;18.944;2023-04-26T00:15:13;101363.01;;;13.55;51.97
55550;BME280;41397;49.972;18.944;2023-04-26T00:18:14;101366.51;;;13.57;51.83
55550;BME280;41397;49.972;18.944;2023-04-26T00:21:17;101370.13;;;13.58;51.71
55550;BME280;41397;49.972;18.944;2023-04-26T00:24:18;101366.39;;;13.59;51.65
55550;BME280;41397;49.972;18.944;2023-04-26T00:27:20;101368.91;;;13.50;51.44
55550;BME280;41397;49.972;18.944;2023-04-26T00:30:22;101369.02;;;13.49;51.73
55550;BME280;41397;49.972;18.944;2023-04-26T00:33:23;101373.03;;;13.45;51.66
55550;BME280;41397;49.972;18.944;2023-04-26T00:36:25;101375.77;;;13.45;51.28
55550;BME280;41397;49.972;18.944;2023-04-26T00:39:27;101371.67;;;13.39;51.60
55550;BME280;41397;49.972;18.944;2023-04-26T00:42:29;101371.07;;;13.36;51.50
55550;BME280;41397;49.972;18.944;2023-04-26T00:45:30;101381.45;;;13.32;51.10
55550;BME280;41397;49.972;18.944;2023-04-26T00:48:32;101372.58;;;13.28;51.16
55550;BME280;41397;49.972;18.944;2023-04-26T00:51:34;101376.34;;;13.27;51.16
55550;BME280;41397;49.972;18.944;2023-04-26T00:54:37;101377.21;;;13.28;51.11
55550;BME280;41397;49.972;18.944;2023-04-26T00:57:40;101377.21;;;13.28;51.23
55550;BME280;41397;49.972;18.944;2023-04-26T01:00:41;101384.73;;;13.26;51.13
55550;BME280;41397;49.972;18.944;2023-04-26T01:03:42;101378.70;;;13.21;50.81
55550;BME280;41397;49.972;18.944;2023-04-26T01:06:46;101383.94;;;13.24;50.67
55550;BME280;41397;49.972;18.944;2023-04-26T01:09:48;101395.18;;;13.21;50.32
55550;BME280;41397;49.972;18.944;2023-04-26T01:12:51;101393.94;;;13.14;49.83
55550;BME280;41397;49.972;18.944;2023-04-26T01:15:53;101388.55;;;13.12;50.12
55550;BME280;41397;49.972;18.944;2023-04-26T01:18:56;101395.21;;;13.09;49.79
55550;BME280;41397;49.972;18.944;2023-04-26T01:21:58;101396.33;;;13.07;49.78
55550;BME280;41397;49.972;18.944;2023-04-26T01:25:00;101398.94;;;13.08;49.41
55550;BME280;41397;49.972;18.944;2023-04-26T01:28:05;101409.16;;;13.06;49.30
55550;BME280;41397;49.972;18.944;2023-04-26T01:31:13;101414.80;;;13.05;49.00
55550;BME280;41397;49.972;18.944;2023-04-26T01:34:26;101414.91;;;13.03;49.11
55550;BME280;41397;49.972;18.944;2023-04-26T01:37:27;101406.18;;;12.98;48.68
55550;BME280;41397;49.972;18.944;2023-04-26T01:40:28;101416.54;;;12.95;48.85
55550;BME280;41397;49.972;18.944;2023-04-26T01:43:30;101417.81;;;12.91;48.58
55550;BME280;41397;49.972;18.944;2023-04-26T01:46:32;101423.52;;;12.87;48.61
55550;BME280;41397;49.972;18.944;2023-04-26T01:49:33;101425.91;;;12.81;48.47
55550;BME280;41397;49.972;18.944;2023-04-26T01:52:36;101427.53;;;12.72;48.18
55550;BME280;41397;49.972;18.944;2023-04-26T01:55:37;101417.78;;;12.68;48.32
55550;BME280;41397;49.972;18.944;2023-04-26T01:58:39;101422.54;;;12.66;48.04
55550;BME280;41397;49.972;18.944;2023-04-26T02:01:41;101418.79;;;12.56;47.75
55550;BME280;41397;49.972;18.944;2023-04-26T02:04:43;101424.77;;;12.50;47.85
55550;BME280;41397;49.972;18.944;2023-04-26T02:07:44;101420.25;;;12.37;47.96
55550;BME280;41397;49.972;18.944;2023-04-26T02:10:46;101428.61;;;12.36;47.85
55550;BME280;41397;49.972;18.944;2023-04-26T02:13:47;101424.59;;;12.29;47.95
55550;BME280;41397;49.972;18.944;2023-04-26T02:16:49;101421.23;;;12.25;47.76
55550;BME280;41397;49.972;18.944;2023-04-26T02:19:52;101425.20;;;12.21;48.14
55550;BME280;41397;49.972;18.944;2023-04-26T02:22:53;101426.30;;;12.18;47.92
55550;BME280;41397;49.972;18.944;2023-04-26T02:25:55;101434.79;;;12.15;48.05
55550;BME280;41397;49.972;18.944;2023-04-26T02:28:57;101434.16;;;12.12;47.85
55550;BME280;41397;49.972;18.944;2023-04-26T02:31:59;101425.41;;;12.07;47.86
55550;BME280;41397;49.972;18.944;2023-04-26T02:35:00;101433.75;;;12.05;47.98
55550;BME280;41397;49.972;18.944;2023-04-26T02:38:02;101434.99;;;12.01;47.78
55550;BME280;41397;49.972;18.944;2023-04-26T02:41:04;101427.59;;;11.90;48.03
55550;BME280;41397;49.972;18.944;2023-04-26T02:44:06;101432.52;;;11.85;48.40
55550;BME280;41397;49.972;18.944;2023-04-26T02:47:08;101438.11;;;11.84;48.40
55550;BME280;41397;49.972;18.944;2023-04-26T02:50:10;101443.97;;;11.79;48.50
55550;BME280;41397;49.972;18.944;2023-04-26T02:53:11;101447.81;;;11.76;48.50
55550;BME280;41397;49.972;18.944;2023-04-26T02:56:13;101455.38;;;11.73;48.96
55550;BME280;41397;49.972;18.944;2023-04-26T02:59:14;101453.63;;;11.72;48.95
55550;BME280;41397;49.972;18.944;2023-04-26T03:02:16;101449.39;;;11.68;49.09
55550;BME280;41397;49.972;18.944;2023-04-26T03:05:17;101448.73;;;11.64;49.21
55550;BME280;41397;49.972;18.944;2023-04-26T03:08:20;101454.68;;;11.58;49.33
55550;BME280;41397;49.972;18.944;2023-04-26T03:11:21;101460.26;;;11.56;49.52
55550;BME280;41397;49.972;18.944;2023-04-26T03:14:22;101454.28;;;11.51;50.14
55550;BME280;41397;49.972;18.944;2023-04-26T03:17:24;101455.48;;;11.47;50.65
55550;BME280;41397;49.972;18.944;2023-04-26T03:20:26;101456.59;;;11.45;50.77
55550;BME280;41397;49.972;18.944;2023-04-26T03:23:28;101455.32;;;11.38;51.14
55550;BME280;41397;49.972;18.944;2023-04-26T03:26:29;101466.48;;;11.34;50.97
55550;BME280;41397;49.972;18.944;2023-04-26T03:29:30;101462.10;;;11.32;51.25
55550;BME280;41397;49.972;18.944;2023-04-26T03:32:34;101458.08;;;11.25;51.55
55550;BME280;41397;49.972;18.944;2023-04-26T03:35:35;101461.93;;;11.22;51.23
55550;BME280;41397;49.972;18.944;2023-04-26T03:38:37;101468.73;;;11.17;51.62
55550;BME280;41397;49.972;18.944;2023-04-26T03:41:38;101473.55;;;11.13;51.41
55550;BME280;41397;49.972;18.944;2023-04-26T03:44:42;101481.65;;;11.15;51.52
55550;BME280;41397;49.972;18.944;2023-04-26T03:47:44;101485.38;;;11.14;51.40
55550;BME280;41397;49.972;18.944;2023-04-26T03:50:46;101479.14;;;11.11;51.32
55550;BME280;41397;49.972;18.944;2023-04-26T03:53:47;101490.63;;;11.17;51.17
55550;BME280;41397;49.972;18.944;2023-04-26T03:56:50;101495.85;;;11.32;51.27
55550;BME280;41397;49.972;18.944;2023-04-26T03:59:52;101502.48;;;11.54;50.70
55550;BME280;41397;49.972;18.944;2023-04-26T04:02:53;101498.01;;;11.77;50.35
55550;BME280;41397;49.972;18.944;2023-04-26T04:05:55;101497.74;;;12.17;49.69
55550;BME280;41397;49.972;18.944;2023-04-26T04:08:58;101494.87;;;12.65;48.98
55550;BME280;41397;49.972;18.944;2023-04-26T04:12:00;101498.18;;;13.15;47.54
55550;BME280;41397;49.972;18.944;2023-04-26T04:15:03;101498.77;;;13.64;46.40
55550;BME280;41397;49.972;18.944;2023-04-26T04:18:04;101492.13;;;14.10;45.28
55550;BME280;41397;49.972;18.944;2023-04-26T04:21:06;101504.84;;;14.54;44.32
55550;BME280;41397;49.972;18.944;2023-04-26T04:24:08;101502.11;;;15.06;43.82
55550;BME280;41397;49.972;18.944;2023-04-26T04:27:09;101505.77;;;15.47;42.24
55550;BME280;41397;49.972;18.944;2023-04-26T04:30:11;101498.61;;;15.85;41.50
55550;BME280;41397;49.972;18.944;2023-04-26T04:33:14;101502.57;;;16.11;40.68
55550;BME280;41397;49.972;18.944;2023-04-26T04:36:19;101499.52;;;16.34;39.89
55550;BME280;41397;49.972;18.944;2023-04-26T04:39:20;101507.22;;;16.79;39.09
55550;BME280;41397;49.972;18.944;2023-04-26T04:42:21;101510.31;;;17.13;38.85
55550;BME280;41397;49.972;18.944;2023-04-26T04:45:23;101509.85;;;17.55;38.34
55550;BME280;41397;49.972;18.944;2023-04-26T04:48:24;101511.45;;;17.85;37.38
55550;BME280;41397;49.972;18.944;2023-04-26T04:51:26;101518.20;;;18.18;36.70
55550;BME280;41397;49.972;18.944;2023-04-26T04:54:27;101521.13;;;18.35;36.43
55550;BME280;41397;49.972;18.944;2023-04-26T04:57:30;101520.16;;;18.62;35.72
55550;BME280;41397;49.972;18.944;2023-04-26T05:00:32;101524.20;;;18.85;35.26
55550;BME280;41397;49.972;18.944;2023-04-26T05:03:34;101523.55;;;18.92;34.93
55550;BME280;41397;49.972;18.944;2023-04-26T05:06:36;101529.19;;;18.82;34.40
55550;BME280;41397;49.972;18.944;2023-04-26T05:09:40;101530.82;;;18.93;34.16
55550;BME280;41397;49.972;18.944;2023-04-26T05:12:46;101525.57;;;19.07;34.11
55550;BME280;41397;49.972;18.944;2023-04-26T05:15:47;101527.92;;;19.28;34.19
55550;BME280;41397;49.972;18.944;2023-04-26T05:18:48;101533.36;;;19.38;33.53
55550;BME280;41397;49.972;18.944;2023-04-26T05:21:50;101532.73;;;19.52;33.43
55550;BME280;41397;49.972;18.944;2023-04-26T05:24:52;101542.03;;;19.69;33.18
55550;BME280;41397;49.972;18.944;2023-04-26T05:27:53;101536.51;;;19.78;32.99
55550;BME280;41397;49.972;18.944;2023-04-26T05:30:55;101540.96;;;20.13;32.96
55550;BME280;41397;49.972;18.944;2023-04-26T05:33:56;101541.19;;;20.28;32.53
55550;BME280;41397;49.972;18.944;2023-04-26T05:36:58;101550.26;;;20.46;31.91
55550;BME280;41397;49.972;18.944;2023-04-26T05:39:59;101547.12;;;20.41;31.74
55550;BME280;41397;49.972;18.944;2023-04-26T05:43:00;101539.49;;;20.68;31.66
55550;BME280;41397;49.972;18.944;2023-04-26T05:46:02;101540.20;;;20.70;30.55
55550;BME280;41397;49.972;18.944;2023-04-26T05:49:04;101545.75;;;20.94;30.69
55550;BME280;41397;49.972;18.944;2023-04-26T05:52:06;101541.95;;;20.95;30.60
55550;BME280;41397;49.972;18.944;2023-04-26T05:55:08;101551.48;;;21.17;30.30
55550;BME280;41397;49.972;18.944;2023-04-26T05:58:10;101543.47;;;21.06;29.92
55550;BME280;41397;49.972;18.944;2023-04-26T06:01:12;101551.44;;;21.34;29.47
55550;BME280;41397;49.972;18.944;2023-04-26T06:04:14;101555.08;;;21.34;29.51
55550;BME280;41397;49.972;18.944;2023-04-26T06:07:15;101552.32;;;21.26;29.11
55550;BME280;41397;49.972;18.944;2023-04-26T06:10:17;101560.84;;;21.16;29.05
55550;BME280;41397;49.972;18.944;2023-04-26T06:13:18;101556.34;;;21.15;29.60
55550;BME280;41397;49.972;18.944;2023-04-26T06:16:21;101561.17;;;21.29;29.41
55550;BME280;41397;49.972;18.944;2023-04-26T06:19:22;101558.77;;;21.18;28.87
55550;BME280;41397;49.972;18.944;2023-04-26T06:22:25;101555.29;;;21.08;28.56
55550;BME280;41397;49.972;18.944;2023-04-26T06:25:26;101567.12;;;21.18;28.53
55550;BME280;41397;49.972;18.944;2023-04-26T06:28:29;101572.51;;;21.20;28.75
55550;BME280;41397;49.972;18.944;2023-04-26T06:31:31;101568.31;;;21.24;28.44
55550;BME280;41397;49.972;18.944;2023-04-26T06:34:32;101572.00;;;20.83;29.09
55550;BME280;41397;49.972;18.944;2023-04-26T06:37:37;101564.34;;;21.10;28.75
55550;BME280;41397;49.972;18.944;2023-04-26T06:40:39;101568.16;;;21.17;28.67
55550;BME280;41397;49.972;18.944;2023-04-26T06:43:41;101563.15;;;20.88;28.67
55550;BME280;41397;49.972;18.944;2023-04-26T06:46:42;101574.88;;;20.33;29.66
55550;BME280;41397;49.972;18.944;2023-04-26T06:49:44;101566.23;;;20.52;30.06
55550;BME280;41397;49.972;18.944;2023-04-26T06:52:45;101574.36;;;20.46;30.60
55550;BME280;41397;49.972;18.944;2023-04-26T06:55:47;101576.41;;;20.19;29.65
55550;BME280;41397;49.972;18.944;2023-04-26T07:02:07;101582.99;;;20.18;30.80
55550;BME280;41397;49.972;18.944;2023-04-26T07:05:08;101573.81;;;20.26;30.25
55550;BME280;41397;49.972;18.944;2023-04-26T07:08:10;101564.60;;;20.17;30.29
55550;BME280;41397;49.972;18.944;2023-04-26T07:11:12;101567.39;;;20.25;30.30
55550;BME280;41397;49.972;18.944;2023-04-26T07:14:15;101573.45;;;20.21;30.72
55550;BME280;41397;49.972;18.944;2023-04-26T07:17:17;101562.20;;;20.38;30.33
55550;BME280;41397;49.972;18.944;2023-04-26T07:20:19;101579.37;;;20.26;30.33
55550;BME280;41397;49.972;18.944;2023-04-26T07:23:23;101580.55;;;20.15;30.68
55550;BME280;41397;49.972;18.944;2023-04-26T07:26:25;101587.13;;;20.06;30.91
55550;BME280;41397;49.972;18.944;2023-04-26T07:29:27;101583.55;;;19.79;30.94
55550;BME280;41397;49.972;18.944;2023-04-26T07:32:28;101592.91;;;19.52;31.23
55550;BME280;41397;49.972;18.944;2023-04-26T07:35:30;101587.70;;;19.23;31.27
55550;BME280;41397;49.972;18.944;2023-04-26T07:38:34;101597.20;;;18.76;32.31
55550;BME280;41397;49.972;18.944;2023-04-26T07:41:36;101599.56;;;18.53;32.60
55550;BME280;41397;49.972;18.944;2023-04-26T07:44:37;101611.65;;;18.52;32.63
55550;BME280;41397;49.972;18.944;2023-04-26T07:47:38;101605.16;;;18.26;32.89
55550;BME280;41397;49.972;18.944;2023-04-26T07:50:40;101605.01;;;18.00;33.45
55550;BME280;41397;49.972;18.944;2023-04-26T07:53:41;101604.08;;;17.81;34.06
55550;BME280;41397;49.972;18.944;2023-04-26T07:56:43;101607.41;;;17.38;34.49
55550;BME280;41397;49.972;18.944;2023-04-26T07:59:44;101604.19;;;17.52;34.75
55550;BME280;41397;49.972;18.944;2023-04-26T08:02:46;101613.11;;;17.36;34.91
55550;BME280;41397;49.972;18.944;2023-04-26T08:05:47;101616.48;;;17.30;35.04
55550;BME280;41397;49.972;18.944;2023-04-26T08:08:49;101617.77;;;17.36;35.05
55550;BME280;41397;49.972;18.944;2023-04-26T08:11:52;101617.59;;;17.47;34.83
55550;BME280;41397;49.972;18.944;2023-04-26T08:14:54;101624.62;;;17.31;34.71
55550;BME280;41397;49.972;18.944;2023-04-26T08:17:55;101625.34;;;17.34;35.37
55550;BME280;41397;49.972;18.944;2023-04-26T08:20:57;101617.90;;;17.44;34.38
55550;BME280;41397;49.972;18.944;2023-04-26T08:23:59;101624.97;;;17.56;34.96
55550;BME280;41397;49.972;18.944;2023-04-26T08:27:01;101624.67;;;17.59;33.26
55550;BME280;41397;49.972;18.944;2023-04-26T08:30:04;101621.64;;;17.52;33.39
55550;BME280;41397;49.972;18.944;2023-04-26T08:33:08;101615.30;;;17.70;33.70
55550;BME280;41397;49.972;18.944;2023-04-26T08:36:09;101625.94;;;17.84;33.88
55550;BME280;41397;49.972;18.944;2023-04-26T08:39:12;101620.29;;;17.66;33.75
55550;BME280;41397;49.972;18.944;2023-04-26T08:42:15;101630.93;;;17.61;35.11
55550;BME280;41397;49.972;18.944;2023-04-26T08:45:19;101630.26;;;17.49;35.71
55550;BME280;41397;49.972;18.944;2023-04-26T08:48:22;101625.52;;;17.22;35.86
55550;BME280;41397;49.972;18.944;2023-04-26T08:51:24;101621.54;;;17.35;36.49
55550;BME280;41397;49.972;18.944;2023-04-26T08:54:27;101623.43;;;17.44;34.94
55550;BME280;41397;49.972;18.944;2023-04-26T08:57:30;101615.44;;;17.41;35.22
55550;BME280;41397;49.972;18.944;2023-04-26T09:00:33;101617.83;;;17.63;33.76
55550;BME280;41397;49.972;18.944;2023-04-26T09:03:36;101618.55;;;17.65;32.42
55550;BME280;41397;49.972;18.944;2023-04-26T09:06:37;101617.32;;;17.78;33.59
55550;BME280;41397;49.972;18.944;2023-04-26T09:09:41;101621.71;;;17.70;32.32
55550;BME280;41397;49.972;18.944;2023-04-26T09:12:45;101623.81;;;17.59;32.59
55550;BME280;41397;49.972;18.944;2023-04-26T09:15:48;101621.02;;;17.68;33.06
55550;BME280;41397;49.972;18.944;2023-04-26T09:18:53;101627.44;;;17.59;33.25
55550;BME280;41397;49.972;18.944;2023-04-26T09:21:58;101625.82;;;17.66;32.32
55550;BME280;41397;49.972;18.944;2023-04-26T09:25:04;101629.03;;;17.62;32.83
55550;BME280;41397;49.972;18.944;2023-04-26T09:34:43;101619.67;;;17.72;31.31
55550;BME280;41397;49.972;18.944;2023-04-26T09:37:59;101623.16;;;17.74;32.01
55550;BME280;41397;49.972;18.944;2023-04-26T09:41:04;101626.57;;;17.59;31.42
55550;BME280;41397;49.972;18.944;2023-04-26T09:47:21;101643.73;;;17.05;31.95
55550;BME280;41397;49.972;18.944;2023-04-26T09:50:30;101650.55;;;17.01;33.13
55550;BME280;41397;49.972;18.944;2023-04-26T09:53:34;101655.52;;;16.78;33.61
55550;BME280;41397;49.972;18.944;2023-04-26T09:56:37;101654.89;;;16.65;33.95
55550;BME280;41397;49.972;18.944;2023-04-26T10:02:49;101647.84;;;16.22;33.02
55550;BME280;41397;49.972;18.944;2023-04-26T10:05:51;101647.99;;;16.20;33.46
55550;BME280;41397;49.972;18.944;2023-04-26T10:08:53;101647.14;;;16.30;33.40
55550;BME280;41397;49.972;18.944;2023-04-26T10:11:57;101641.04;;;16.26;33.60
55550;BME280;41397;49.972;18.944;2023-04-26T10:15:00;101644.79;;;16.25;32.60
55550;BME280;41397;49.972;18.944;2023-04-26T10:18:03;101635.92;;;16.22;33.39
55550;BME280;41397;49.972;18.944;2023-04-26T10:21:12;101636.25;;;16.48;33.19
55550;BME280;41397;49.972;18.944;2023-04-26T10:24:17;101632.80;;;16.65;32.55
55550;BME280;41397;49.972;18.944;2023-04-26T10:30:32;101646.91;;;16.91;31.47
55550;BME280;41397;49.972;18.944;2023-04-26T10:33:33;101637.16;;;17.06;31.83
55550;BME280;41397;49.972;18.944;2023-04-26T10:37:05;101638.34;;;17.14;30.16
55550;BME280;41397;49.972;18.944;2023-04-26T10:39:46;101644.59;;;16.96;30.60
55550;BME280;41397;49.972;18.944;2023-04-26T10:42:48;101642.99;;;16.94;28.75
55550;BME280;41397;49.972;18.944;2023-04-26T10:45:49;101635.57;;;17.04;28.96
55550;BME280;41397;49.972;18.944;2023-04-26T10:48:51;101641.40;;;17.11;30.05
55550;BME280;41397;49.972;18.944;2023-04-26T10:55:35;101636.60;;;17.03;30.62
55550;BME280;41397;49.972;18.944;2023-04-26T10:58:33;101642.10;;;17.22;30.67
55550;BME280;41397;49.972;18.944;2023-04-26T11:01:34;101641.20;;;17.41;30.68
55550;BME280;41397;49.972;18.944;2023-04-26T11:08:02;101629.88;;;17.25;29.37
55550;BME280;41397;49.972;18.944;2023-04-26T11:11:07;101627.98;;;17.25;30.32
55550;BME280;41397;49.972;18.944;2023-04-26T11:14:14;101641.67;;;17.07;30.35
55550;BME280;41397;49.972;18.944;2023-04-26T11:17:16;101636.73;;;17.01;30.80
55550;BME280;41397;49.972;18.944;2023-04-26T11:20:17;101647.96;;;17.00;31.30
55550;BME280;41397;49.972;18.944;2023-04-26T11:26:38;101646.46;;;17.15;30.07
55550;BME280;41397;49.972;18.944;2023-04-26T11:29:40;101650.83;;;17.18;28.64
55550;BME280;41397;49.972;18.944;2023-04-26T11:32:47;101638.63;;;17.11;29.16
55550;BME280;41397;49.972;18.944;2023-04-26T11:35:49;101642.10;;;17.13;29.91
55550;BME280;41397;49.972;18.944;2023-04-26T11:38:54;101653.48;;;17.00;30.25
55550;BME280;41397;49.972;18.944;2023-04-26T11:45:08;101642.36;;;17.29;30.74
55550;BME280;41397;49.972;18.944;2023-04-26T11:48:11;101644.63;;;17.53;30.21
55550;BME280;41397;49.972;18.944;2023-04-26T11:51:13;101631.47;;;17.74;29.66
55550;BME280;41397;49.972;18.944;2023-04-26T11:57:30;101635.66;;;17.88;28.21
55550;BME280;41397;49.972;18.944;2023-04-26T12:00:33;101634.03;;;17.95;28.22
55550;BME280;41397;49.972;18.944;2023-04-26T12:03:34;101635.66;;;17.88;28.43
55550;BME280;41397;49.972;18.944;2023-04-26T12:06:41;101634.95;;;17.77;28.29
55550;BME280;41397;49.972;18.944;2023-04-26T12:09:43;101645.08;;;17.58;28.77
55550;BME280;41397;49.972;18.944;2023-04-26T12:12:52;101637.39;;;17.42;29.23
55550;BME280;41397;49.972;18.944;2023-04-26T12:15:56;101643.96;;;17.31;29.21
55550;BME280;41397;49.972;18.944;2023-04-26T12:18:58;101642.23;;;17.30;29.20
55550;BME280;41397;49.972;18.944;2023-04-26T12:22:00;101643.36;;;17.38;29.70
55550;BME280;41397;49.972;18.944;2023-04-26T12:25:06;101647.28;;;17.45;27.94
55550;BME280;41397;49.972;18.944;2023-04-26T12:28:12;101638.97;;;17.55;28.99
55550;BME280;41397;49.972;18.944;2023-04-26T12:31:14;101637.83;;;17.38;28.07
55550;BME280;41397;49.972;18.944;2023-04-26T12:34:15;101646.12;;;17.38;28.50
55550;BME280;41397;49.972;18.944;2023-04-26T12:37:16;101648.92;;;17.18;27.96
55550;BME280;41397;49.972;18.944;2023-04-26T12:40:19;101641.67;;;17.07;28.09
55550;BME280;41397;49.972;18.944;2023-04-26T12:43:20;101650.70;;;17.19;28.70
55550;BME280;41397;49.972;18.944;2023-04-26T12:46:25;101638.18;;;17.15;29.38
55550;BME280;41397;49.972;18.944;2023-04-26T12:49:27;101645.13;;;17.29;28.20
55550;BME280;41397;49.972;18.944;2023-04-26T12:52:31;101640.80;;;17.07;28.54
55550;BME280;41397;49.972;18.944;2023-04-26T12:55:32;101661.61;;;17.01;28.76
55550;BME280;41397;49.972;18.944;2023-04-26T12:58:34;101646.36;;;16.97;29.79
55550;BME280;41397;49.972;18.944;2023-04-26T13:01:36;101649.52;;;17.12;29.95
55550;BME280;41397;49.972;18.944;2023-04-26T13:04:37;101642.56;;;17.08;30.44
55550;BME280;41397;49.972;18.944;2023-04-26T13:07:42;101646.93;;;17.11;30.49
55550;BME280;41397;49.972;18.944;2023-04-26T13:10:44;101646.33;;;17.17;30.88
55550;BME280;41397;49.972;18.944;2023-04-26T13:13:46;101644.89;;;17.03;29.44
55550;BME280;41397;49.972;18.944;2023-04-26T13:16:49;101649.23;;;17.15;29.42
55550;BME280;41397;49.972;18.944;2023-04-26T13:19:52;101642.67;;;17.26;29.92
55550;BME280;41397;49.972;18.944;2023-04-26T13:22:54;101653.98;;;17.42;30.08
55550;BME280;41397;49.972;18.944;2023-04-26T13:25:55;101650.34;;;17.51;28.68
55550;BME280;41397;49.972;18.944;2023-04-26T13:28:57;101645.73;;;17.33;28.08
55550;BME280;41397;49.972;18.944;2023-04-26T13:31:58;101652.69;;;17.37;27.45
55550;BME280;41397;49.972;18.944;2023-04-26T13:35:00;101663.62;;;17.28;27.39
55550;BME280;41397;49.972;18.944;2023-04-26T13:38:02;101647.02;;;17.38;28.64
55550;BME280;41397;49.972;18.944;2023-04-26T13:41:04;101655.02;;;17.31;27.18
55550;BME280;41397;49.972;18.944;2023-04-26T13:44:05;101652.55;;;17.38;27.41
55550;BME280;41397;49.972;18.944;2023-04-26T13:47:07;101648.92;;;17.28;27.75
55550;BME280;41397;49.972;18.944;2023-04-26T13:50:09;101658.22;;;17.37;29.34
55550;BME280;41397;49.972;18.944;2023-04-26T13:53:10;101660.59;;;17.22;30.19
55550;BME280;41397;49.972;18.944;2023-04-26T13:56:12;101677.73;;;17.16;30.52
55550;BME280;41397;49.972;18.944;2023-04-26T13:59:13;101672.06;;;17.07;29.90
55550;BME280;41397;49.972;18.944;2023-04-26T14:02:15;101683.86;;;16.90;29.31
55550;BME280;41397;49.972;18.944;2023-04-26T14:05:16;101680.97;;;16.92;29.49
55550;BME280;41397;49.972;18.944;2023-04-26T14:08:18;101682.12;;;16.99;28.83
55550;BME280;41397;49.972;18.944;2023-04-26T14:11:19;101672.06;;;17.07;28.76
55550;BME280;41397;49.972;18.944;2023-04-26T14:14:21;101674.83;;;17.07;28.98
55550;BME280;41397;49.972;18.944;2023-04-26T14:17:23;101666.27;;;17.01;27.53
55550;BME280;41397;49.972;18.944;2023-04-26T14:20:27;101677.18;;;16.93;29.09
55550;BME280;41397;49.972;18.944;2023-04-26T14:23:35;101682.42;;;16.86;28.13
55550;BME280;41397;49.972;18.944;2023-04-26T14:30:33;101673.39;;;16.94;28.99
55550;BME280;41397;49.972;18.944;2023-04-26T14:33:49;101671.50;;;16.84;29.14
55550;BME280;41397;49.972;18.944;2023-04-26T14:36:51;101683.56;;;16.93;30.92
55550;BME280;41397;49.972;18.944;2023-04-26T14:39:56;101698.22;;;16.64;29.79
55550;BME280;41397;49.972;18.944;2023-04-26T14:43:02;101694.99;;;16.69;30.28
55550;BME280;41397;49.972;18.944;2023-04-26T14:46:04;101691.80;;;16.64;30.62
55550;BME280;41397;49.972;18.944;2023-04-26T14:49:08;101703.45;;;16.68;30.89
55550;BME280;41397;49.972;18.944;2023-04-26T14:52:09;101707.78;;;16.60;31.08
55550;BME280;41397;49.972;18.944;2023-04-26T14:55:16;101692.66;;;16.45;31.06
55550;BME280;41397;49.972;18.944;2023-04-26T14:58:28;101702.66;;;16.46;30.41
55550;BME280;41397;49.972;18.944;2023-04-26T15:01:30;101699.75;;;16.48;30.49
55550;BME280;41397;49.972;18.944;2023-04-26T15:04:32;101703.70;;;16.55;31.42
55550;BME280;41397;49.972;18.944;2023-04-26T15:07:33;101710.25;;;16.54;31.61
55550;BME280;41397;49.972;18.944;2023-04-26T15:10:36;101706.18;;;16.58;30.57
55550;BME280;41397;49.972;18.944;2023-04-26T15:13:38;101701.81;;;16.55;29.87
55550;BME280;41397;49.972;18.944;2023-04-26T15:16:39;101705.60;;;16.54;29.32
55550;BME280;41397;49.972;18.944;2023-04-26T15:19:41;101708.20;;;16.46;29.60
55550;BME280;41397;49.972;18.944;2023-04-26T15:22:44;101707.86;;;16.30;30.20
55550;BME280;41397;49.972;18.944;2023-04-26T15:25:46;101709.30;;;16.24;30.59
55550;BME280;41397;49.972;18.944;2023-04-26T15:28:48;101714.48;;;16.17;30.98
55550;BME280;41397;49.972;18.944;2023-04-26T15:31:49;101717.81;;;16.11;31.36
55550;BME280;41397;49.972;18.944;2023-04-26T15:34:52;101731.82;;;15.98;32.15
55550;BME280;41397;49.972;18.944;2023-04-26T15:37:53;101733.69;;;15.88;33.42
55550;BME280;41397;49.972;18.944;2023-04-26T15:40:55;101732.08;;;15.86;33.38
55550;BME280;41397;49.972;18.944;2023-04-26T15:43:57;101727.82;;;15.82;33.51
55550;BME280;41397;49.972;18.944;2023-04-26T15:47:00;101728.17;;;15.88;33.52
55550;BME280;41397;49.972;18.944;2023-04-26T15:50:08;101718.93;;;15.99;33.95
55550;BME280;41397;49.972;18.944;2023-04-26T15:53:10;101721.70;;;15.99;31.88
55550;BME280;41397;49.972;18.944;2023-04-26T15:56:16;101723.14;;;16.03;31.06
55550;BME280;41397;49.972;18.944;2023-04-26T15:59:20;101721.82;;;15.97;31.33
55550;BME280;41397;49.972;18.944;2023-04-26T16:02:26;101730.06;;;15.88;31.26
55550;BME280;41397;49.972;18.944;2023-04-26T16:05:28;101729.63;;;15.92;31.77
55550;BME280;41397;49.972;18.944;2023-04-26T16:08:32;101727.55;;;15.85;31.83
55550;BME280;41397;49.972;18.944;2023-04-26T16:11:34;101730.40;;;15.73;31.49
55550;BME280;41397;49.972;18.944;2023-04-26T16:14:36;101732.21;;;15.63;31.78
55550;BME280;41397;49.972;18.944;2023-04-26T16:17:39;101732.45;;;15.60;31.96
55550;BME280;41397;49.972;18.944;2023-04-26T16:20:40;101737.09;;;15.60;32.50
55550;BME280;41397;49.972;18.944;2023-04-26T16:23:41;101738.40;;;15.56;32.95